sensor_id;sensor_type;location;lat;lon;timestamp;P1;durP1;ratioP1;P2;durP2;ratioP2
72493;SDS011;60520;49.182;-0.348;2023-05-29T00:01:14;8.15;;;3.80;;
72493;SDS011;60520;49.182;-0.348;2023-05-29T00:03:43;8.00;;;3.97;;
72493;SDS011;60520;49.182;-0.348;2023-05-29T00:06:12;7.25;;;3.60;;
72493;SDS011;60520;49.182;-0.348;2023-05-29T00:08:40;7.53;;;3.45;;
72493;SDS011;60520;49.182;-0.348;2023-05-29T00:11:07;6.75;;;3.70;;
72493;SDS011;60520;49.182;-0.348;2023-05-29T00:13:34;7.68;;;3.80;;
72493;SDS011;60520;49.182;-0.348;2023-05-29T00:16:01;8.27;;;4.07;;
72493;SDS011;60520;49.182;-0.348;2023-05-29T00:18:29;8.10;;;3.83;;
72493;SDS011;60520;49.182;-0.348;2023-05-29T00:20:57;7.65;;;3.72;;
72493;SDS011;60520;49.182;-0.348;2023-05-29T00:23:25;6.70;;;3.35;;
72493;SDS011;60520;49.182;-0.348;2023-05-29T00:25:52;6.82;;;3.75;;
72493;SDS011;60520;49.182;-0.348;2023-05-29T00:28:20;6.97;;;3.60;;
72493;SDS011;60520;49.182;-0.348;2023-05-29T00:30:47;7.60;;;3.65;;
72493;SDS011;60520;49.182;-0.348;2023-05-29T00:33:14;6.47;;;3.40;;
72493;SDS011;60520;49.182;-0.348;2023-05-29T00:35:42;7.93;;;3.97;;
72493;SDS011;60520;49.182;-0.348;2023-05-29T00:38:10;7.30;;;3.70;;
72493;SDS011;60520;49.182;-0.348;2023-05-29T00:40:38;9.20;;;4.10;;
72493;SDS011;60520;49.182;-0.348;2023-05-29T00:43:06;5.97;;;3.67;;
72493;SDS011;60520;49.182;-0.348;2023-05-29T00:45:33;8.07;;;3.63;;
72493;SDS011;60520;49.182;-0.348;2023-05-29T00:48:01;7.05;;;3.78;;
72493;SDS011;60520;49.182;-0.348;2023-05-29T00:50:28;6.78;;;3.97;;
72493;SDS011;60520;49.182;-0.348;2023-05-29T00:52:55;6.20;;;3.65;;
72493;SDS011;60520;49.182;-0.348;2023-05-29T00:55:23;6.00;;;3.30;;
72493;SDS011;60520;49.182;-0.348;2023-05-29T00:57:52;8.00;;;3.92;;
72493;SDS011;60520;49.182;-0.348;2023-05-29T01:00:19;6.95;;;3.47;;
72493;SDS011;60520;49.182;-0.348;2023-05-29T01:02:46;9.45;;;3.67;;
72493;SDS011;60520;49.182;-0.348;2023-05-29T01:05:14;12.20;;;3.97;;
72493;SDS011;60520;49.182;-0.348;2023-05-29T01:07:41;6.13;;;3.47;;
72493;SDS011;60520;49.182;-0.348;2023-05-29T01:10:09;5.55;;;3.08;;
72493;SDS011;60520;49.182;-0.348;2023-05-29T01:12:38;7.15;;;3.58;;
72493;SDS011;60520;49.182;-0.348;2023-05-29T01:15:16;6.28;;;2.83;;
72493;SDS011;60520;49.182;-0.348;2023-05-29T01:17:46;6.32;;;3.47;;
72493;SDS011;60520;49.182;-0.348;2023-05-29T01:20:20;6.78;;;3.45;;
72493;SDS011;60520;49.182;-0.348;2023-05-29T01:22:58;8.77;;;3.55;;
72493;SDS011;60520;49.182;-0.348;2023-05-29T01:25:29;4.72;;;3.20;;
72493;SDS011;60520;49.182;-0.348;2023-05-29T01:27:59;5.35;;;3.30;;
72493;SDS011;60520;49.182;-0.348;2023-05-29T01:30:28;7.40;;;3.35;;
72493;SDS011;60520;49.182;-0.348;2023-05-29T01:32:58;7.40;;;3.85;;
72493;SDS011;60520;49.182;-0.348;2023-05-29T01:35:25;7.13;;;2.90;;
72493;SDS011;60520;49.182;-0.348;2023-05-29T01:37:52;7.57;;;3.58;;
72493;SDS011;60520;49.182;-0.348;2023-05-29T01:40:19;7.00;;;3.42;;
72493;SDS011;60520;49.182;-0.348;2023-05-29T01:42:47;7.00;;;3.33;;
72493;SDS011;60520;49.182;-0.348;2023-05-29T01:45:16;6.05;;;3.25;;
72493;SDS011;60520;49.182;-0.348;2023-05-29T01:47:43;6.30;;;3.50;;
72493;SDS011;60520;49.182;-0.348;2023-05-29T01:50:10;5.90;;;3.17;;
72493;SDS011;60520;49.182;-0.348;2023-05-29T01:52:38;5.35;;;3.30;;
72493;SDS011;60520;49.182;-0.348;2023-05-29T01:55:05;7.72;;;3.78;;
72493;SDS011;60520;49.182;-0.348;2023-05-29T01:57:33;6.65;;;3.22;;
72493;SDS011;60520;49.182;-0.348;2023-05-29T02:00:00;5.55;;;3.30;;
72493;SDS011;60520;49.182;-0.348;2023-05-29T02:02:36;6.82;;;3.40;;
72493;SDS011;60520;49.182;-0.348;2023-05-29T02:05:04;8.13;;;3.72;;
72493;SDS011;60520;49.182;-0.348;2023-05-29T02:07:31;8.82;;;3.13;;
72493;SDS011;60520;49.182;-0.348;2023-05-29T02:09:58;6.20;;;3.08;;
72493;SDS011;60520;49.182;-0.348;2023-05-29T02:12:25;6.90;;;3.17;;
72493;SDS011;60520;49.182;-0.348;2023-05-29T02:14:53;6.88;;;3.30;;
72493;SDS011;60520;49.182;-0.348;2023-05-29T02:17:21;6.40;;;3.35;;
72493;SDS011;60520;49.182;-0.348;2023-05-29T02:19:49;6.28;;;3.38;;
72493;SDS011;60520;49.182;-0.348;2023-05-29T02:22:17;6.78;;;3.15;;
72493;SDS011;60520;49.182;-0.348;2023-05-29T02:24:44;5.53;;;3.00;;
72493;SDS011;60520;49.182;-0.348;2023-05-29T02:27:11;5.65;;;3.22;;
72493;SDS011;60520;49.182;-0.348;2023-05-29T02:29:38;6.18;;;3.10;;
72493;SDS011;60520;49.182;-0.348;2023-05-29T02:32:05;6.57;;;3.35;;
72493;SDS011;60520;49.182;-0.348;2023-05-29T02:34:32;7.20;;;3.17;;
72493;SDS011;60520;49.182;-0.348;2023-05-29T02:37:01;6.18;;;3.30;;
72493;SDS011;60520;49.182;-0.348;2023-05-29T02:39:29;6.68;;;3.40;;
72493;SDS011;60520;49.182;-0.348;2023-05-29T02:41:56;7.07;;;3.17;;
72493;SDS011;60520;49.182;-0.348;2023-05-29T02:44:23;6.22;;;3.20;;
72493;SDS011;60520;49.182;-0.348;2023-05-29T02:46:50;8.48;;;3.92;;
72493;SDS011;60520;49.182;-0.348;2023-05-29T02:49:17;5.63;;;3.28;;
72493;SDS011;60520;49.182;-0.348;2023-05-29T02:51:44;6.47;;;3.17;;
72493;SDS011;60520;49.182;-0.348;2023-05-29T02:54:13;6.97;;;3.50;;
72493;SDS011;60520;49.182;-0.348;2023-05-29T02:56:40;6.45;;;3.17;;
72493;SDS011;60520;49.182;-0.348;2023-05-29T02:59:07;6.80;;;3.05;;
72493;SDS011;60520;49.182;-0.348;2023-05-29T03:01:36;6.68;;;3.30;;
72493;SDS011;60520;49.182;-0.348;2023-05-29T03:04:03;6.03;;;3.13;;
72493;SDS011;60520;49.182;-0.348;2023-05-29T03:06:30;6.60;;;3.05;;
72493;SDS011;60520;49.182;-0.348;2023-05-29T03:08:57;5.57;;;2.95;;
72493;SDS011;60520;49.182;-0.348;2023-05-29T03:11:26;6.53;;;3.20;;
72493;SDS011;60520;49.182;-0.348;2023-05-29T03:13:53;6.30;;;3.22;;
72493;SDS011;60520;49.182;-0.348;2023-05-29T03:16:21;6.82;;;2.90;;
72493;SDS011;60520;49.182;-0.348;2023-05-29T03:18:48;7.00;;;3.22;;
72493;SDS011;60520;49.182;-0.348;2023-05-29T03:21:15;7.55;;;3.45;;
72493;SDS011;60520;49.182;-0.348;2023-05-29T03:23:42;5.63;;;2.80;;
72493;SDS011;60520;49.182;-0.348;2023-05-29T03:26:09;6.88;;;2.80;;
72493;SDS011;60520;49.182;-0.348;2023-05-29T03:28:38;6.15;;;3.00;;
72493;SDS011;60520;49.182;-0.348;2023-05-29T03:31:05;6.13;;;2.95;;
72493;SDS011;60520;49.182;-0.348;2023-05-29T03:33:33;5.13;;;2.75;;
72493;SDS011;60520;49.182;-0.348;2023-05-29T03:36:00;6.43;;;3.10;;
72493;SDS011;60520;49.182;-0.348;2023-05-29T03:38:28;6.55;;;2.95;;
72493;SDS011;60520;49.182;-0.348;2023-05-29T03:40:55;6.45;;;3.05;;
72493;SDS011;60520;49.182;-0.348;2023-05-29T03:43:22;5.25;;;3.05;;
72493;SDS011;60520;49.182;-0.348;2023-05-29T03:45:50;6.10;;;3.13;;
72493;SDS011;60520;49.182;-0.348;2023-05-29T03:48:17;7.40;;;3.30;;
72493;SDS011;60520;49.182;-0.348;2023-05-29T03:50:45;7.00;;;3.00;;
72493;SDS011;60520;49.182;-0.348;2023-05-29T03:53:12;6.05;;;3.20;;
72493;SDS011;60520;49.182;-0.348;2023-05-29T03:55:40;6.57;;;2.95;;
72493;SDS011;60520;49.182;-0.348;2023-05-29T03:58:07;6.30;;;3.10;;
72493;SDS011;60520;49.182;-0.348;2023-05-29T04:00:34;6.50;;;3.53;;
72493;SDS011;60520;49.182;-0.348;2023-05-29T04:03:02;7.65;;;3.10;;
72493;SDS011;60520;49.182;-0.348;2023-05-29T04:05:30;6.32;;;3.00;;
72493;SDS011;60520;49.182;-0.348;2023-05-29T04:07:57;7.10;;;3.45;;
72493;SDS011;60520;49.182;-0.348;2023-05-29T04:10:24;7.30;;;3.25;;
72493;SDS011;60520;49.182;-0.348;2023-05-29T04:12:51;8.75;;;3.75;;
72493;SDS011;60520;49.182;-0.348;2023-05-29T04:15:18;8.05;;;3.15;;
72493;SDS011;60520;49.182;-0.348;2023-05-29T04:17:46;7.90;;;3.58;;
72493;SDS011;60520;49.182;-0.348;2023-05-29T04:20:15;7.63;;;3.13;;
72493;SDS011;60520;49.182;-0.348;2023-05-29T04:22:42;8.00;;;3.17;;
72493;SDS011;60520;49.182;-0.348;2023-05-29T04:25:10;7.90;;;3.40;;
72493;SDS011;60520;49.182;-0.348;2023-05-29T04:27:37;7.40;;;3.28;;
72493;SDS011;60520;49.182;-0.348;2023-05-29T04:30:06;7.00;;;2.88;;
72493;SDS011;60520;49.182;-0.348;2023-05-29T04:32:33;6.63;;;3.17;;
72493;SDS011;60520;49.182;-0.348;2023-05-29T04:35:01;5.63;;;3.22;;
72493;SDS011;60520;49.182;-0.348;2023-05-29T04:37:29;6.38;;;2.90;;
72493;SDS011;60520;49.182;-0.348;2023-05-29T04:40:02;6.30;;;3.03;;
72493;SDS011;60520;49.182;-0.348;2023-05-29T04:42:33;7.03;;;3.10;;
72493;SDS011;60520;49.182;-0.348;2023-05-29T04:45:00;5.90;;;3.20;;
72493;SDS011;60520;49.182;-0.348;2023-05-29T04:47:29;6.93;;;3.25;;
72493;SDS011;60520;49.182;-0.348;2023-05-29T04:49:58;7.90;;;3.28;;
72493;SDS011;60520;49.182;-0.348;2023-05-29T04:52:25;6.85;;;3.72;;
72493;SDS011;60520;49.182;-0.348;2023-05-29T04:54:54;5.90;;;3.33;;
72493;SDS011;60520;49.182;-0.348;2023-05-29T04:57:22;6.07;;;2.67;;
72493;SDS011;60520;49.182;-0.348;2023-05-29T04:59:49;6.50;;;3.15;;
72493;SDS011;60520;49.182;-0.348;2023-05-29T05:02:16;5.15;;;2.63;;
72493;SDS011;60520;49.182;-0.348;2023-05-29T05:04:43;8.75;;;3.22;;
72493;SDS011;60520;49.182;-0.348;2023-05-29T05:07:11;6.30;;;2.85;;
72493;SDS011;60520;49.182;-0.348;2023-05-29T05:09:38;4.55;;;2.22;;
72493;SDS011;60520;49.182;-0.348;2023-05-29T05:12:06;5.63;;;2.60;;
72493;SDS011;60520;49.182;-0.348;2023-05-29T05:14:34;5.75;;;2.60;;
72493;SDS011;60520;49.182;-0.348;2023-05-29T05:17:01;6.43;;;2.63;;
72493;SDS011;60520;49.182;-0.348;2023-05-29T05:19:28;4.18;;;2.15;;
72493;SDS011;60520;49.182;-0.348;2023-05-29T05:21:55;4.85;;;2.40;;
72493;SDS011;60520;49.182;-0.348;2023-05-29T05:24:22;3.95;;;2.22;;
72493;SDS011;60520;49.182;-0.348;2023-05-29T05:26:51;3.30;;;2.15;;
72493;SDS011;60520;49.182;-0.348;2023-05-29T05:29:20;3.28;;;2.03;;
72493;SDS011;60520;49.182;-0.348;2023-05-29T05:31:47;3.65;;;2.20;;
72493;SDS011;60520;49.182;-0.348;2023-05-29T05:34:14;4.45;;;2.17;;
72493;SDS011;60520;49.182;-0.348;2023-05-29T05:36:41;3.38;;;2.30;;
72493;SDS011;60520;49.182;-0.348;2023-05-29T05:39:08;2.90;;;2.00;;
72493;SDS011;60520;49.182;-0.348;2023-05-29T05:41:36;3.38;;;2.08;;
72493;SDS011;60520;49.182;-0.348;2023-05-29T05:44:03;3.35;;;2.00;;
72493;SDS011;60520;49.182;-0.348;2023-05-29T05:46:32;4.47;;;2.13;;
72493;SDS011;60520;49.182;-0.348;2023-05-29T05:48:59;3.63;;;2.03;;
72493;SDS011;60520;49.182;-0.348;2023-05-29T05:51:26;2.38;;;1.70;;
72493;SDS011;60520;49.182;-0.348;2023-05-29T05:53:53;3.03;;;1.85;;
72493;SDS011;60520;49.182;-0.348;2023-05-29T05:56:21;2.85;;;1.65;;
72493;SDS011;60520;49.182;-0.348;2023-05-29T05:58:48;2.10;;;1.70;;
72493;SDS011;60520;49.182;-0.348;2023-05-29T06:01:16;3.20;;;1.90;;
72493;SDS011;60520;49.182;-0.348;2023-05-29T06:03:44;2.08;;;1.42;;
72493;SDS011;60520;49.182;-0.348;2023-05-29T06:06:13;2.22;;;1.60;;
72493;SDS011;60520;49.182;-0.348;2023-05-29T06:08:42;1.85;;;1.55;;
72493;SDS011;60520;49.182;-0.348;2023-05-29T06:11:10;1.73;;;1.40;;
72493;SDS011;60520;49.182;-0.348;2023-05-29T06:13:37;1.92;;;1.42;;
72493;SDS011;60520;49.182;-0.348;2023-05-29T06:16:04;2.33;;;1.60;;
72493;SDS011;60520;49.182;-0.348;2023-05-29T06:18:31;2.17;;;1.45;;
72493;SDS011;60520;49.182;-0.348;2023-05-29T06:21:00;2.42;;;1.50;;
72493;SDS011;60520;49.182;-0.348;2023-05-29T06:23:28;1.42;;;1.10;;
72493;SDS011;60520;49.182;-0.348;2023-05-29T06:25:55;1.40;;;1.30;;
72493;SDS011;60520;49.182;-0.348;2023-05-29T06:28:22;1.58;;;1.30;;
72493;SDS011;60520;49.182;-0.348;2023-05-29T06:30:49;1.70;;;1.23;;
72493;SDS011;60520;49.182;-0.348;2023-05-29T06:33:16;1.60;;;1.10;;
72493;SDS011;60520;49.182;-0.348;2023-05-29T06:35:45;1.33;;;1.10;;
72493;SDS011;60520;49.182;-0.348;2023-05-29T06:38:13;1.95;;;1.30;;
72493;SDS011;60520;49.182;-0.348;2023-05-29T06:40:40;2.35;;;1.30;;
72493;SDS011;60520;49.182;-0.348;2023-05-29T06:43:07;1.90;;;1.20;;
72493;SDS011;60520;49.182;-0.348;2023-05-29T06:45:35;1.85;;;1.15;;
72493;SDS011;60520;49.182;-0.348;2023-05-29T06:48:02;1.85;;;1.30;;
72493;SDS011;60520;49.182;-0.348;2023-05-29T06:50:30;1.83;;;1.20;;
72493;SDS011;60520;49.182;-0.348;2023-05-29T06:52:58;1.60;;;1.20;;
72493;SDS011;60520;49.182;-0.348;2023-05-29T06:55:27;1.73;;;1.20;;
72493;SDS011;60520;49.182;-0.348;2023-05-29T06:57:54;1.60;;;1.20;;
72493;SDS011;60520;49.182;-0.348;2023-05-29T07:00:21;1.58;;;1.20;;
72493;SDS011;60520;49.182;-0.348;2023-05-29T07:02:49;1.15;;;0.90;;
72493;SDS011;60520;49.182;-0.348;2023-05-29T07:05:16;1.33;;;1.00;;
72493;SDS011;60520;49.182;-0.348;2023-05-29T07:07:43;1.85;;;1.10;;
72493;SDS011;60520;49.182;-0.348;2023-05-29T07:10:10;2.35;;;1.20;;
72493;SDS011;60520;49.182;-0.348;2023-05-29T07:12:39;1.00;;;0.90;;
72493;SDS011;60520;49.182;-0.348;2023-05-29T07:15:06;0.98;;;0.90;;
72493;SDS011;60520;49.182;-0.348;2023-05-29T07:17:33;1.40;;;0.95;;
72493;SDS011;60520;49.182;-0.348;2023-05-29T07:20:00;1.25;;;0.90;;
72493;SDS011;60520;49.182;-0.348;2023-05-29T07:22:28;1.00;;;0.90;;
72493;SDS011;60520;49.182;-0.348;2023-05-29T07:24:55;1.05;;;0.80;;
72493;SDS011;60520;49.182;-0.348;2023-05-29T07:27:22;1.48;;;0.93;;
72493;SDS011;60520;49.182;-0.348;2023-05-29T07:29:50;1.20;;;1.10;;
72493;SDS011;60520;49.182;-0.348;2023-05-29T07:32:17;1.52;;;1.05;;
72493;SDS011;60520;49.182;-0.348;2023-05-29T07:34:46;1.33;;;0.90;;
72493;SDS011;60520;49.182;-0.348;2023-05-29T07:37:14;1.52;;;1.00;;
72493;SDS011;60520;49.182;-0.348;2023-05-29T07:39:44;1.40;;;0.90;;
72493;SDS011;60520;49.182;-0.348;2023-05-29T07:42:11;1.77;;;1.00;;
72493;SDS011;60520;49.182;-0.348;2023-05-29T07:44:38;1.00;;;0.90;;
72493;SDS011;60520;49.182;-0.348;2023-05-29T07:47:08;1.20;;;1.00;;
72493;SDS011;60520;49.182;-0.348;2023-05-29T07:49:35;1.55;;;0.90;;
72493;SDS011;60520;49.182;-0.348;2023-05-29T07:52:02;1.27;;;0.95;;
72493;SDS011;60520;49.182;-0.348;2023-05-29T07:54:29;1.23;;;1.00;;
72493;SDS011;60520;49.182;-0.348;2023-05-29T07:56:57;1.58;;;1.00;;
72493;SDS011;60520;49.182;-0.348;2023-05-29T07:59:25;1.45;;;0.88;;
72493;SDS011;60520;49.182;-0.348;2023-05-29T08:01:52;1.20;;;1.10;;
72493;SDS011;60520;49.182;-0.348;2023-05-29T08:04:24;1.38;;;0.90;;
72493;SDS011;60520;49.182;-0.348;2023-05-29T08:06:51;1.98;;;0.98;;
72493;SDS011;60520;49.182;-0.348;2023-05-29T08:09:18;1.10;;;0.93;;
72493;SDS011;60520;49.182;-0.348;2023-05-29T08:11:45;1.08;;;0.90;;
72493;SDS011;60520;49.182;-0.348;2023-05-29T08:14:13;0.95;;;0.80;;
72493;SDS011;60520;49.182;-0.348;2023-05-29T08:16:40;1.48;;;0.90;;
72493;SDS011;60520;49.182;-0.348;2023-05-29T08:19:07;1.23;;;0.90;;
72493;SDS011;60520;49.182;-0.348;2023-05-29T08:21:35;1.58;;;0.93;;
72493;SDS011;60520;49.182;-0.348;2023-05-29T08:24:06;1.00;;;0.80;;
72493;SDS011;60520;49.182;-0.348;2023-05-29T08:26:34;1.15;;;0.80;;
72493;SDS011;60520;49.182;-0.348;2023-05-29T08:29:01;1.15;;;0.98;;
72493;SDS011;60520;49.182;-0.348;2023-05-29T08:31:29;1.05;;;0.82;;
72493;SDS011;60520;49.182;-0.348;2023-05-29T08:33:57;1.27;;;0.80;;
72493;SDS011;60520;49.182;-0.348;2023-05-29T08:36:24;1.48;;;0.80;;
72493;SDS011;60520;49.182;-0.348;2023-05-29T08:38:53;1.17;;;0.75;;
72493;SDS011;60520;49.182;-0.348;2023-05-29T08:41:21;1.08;;;0.70;;
72493;SDS011;60520;49.182;-0.348;2023-05-29T08:43:48;1.17;;;0.77;;
72493;SDS011;60520;49.182;-0.348;2023-05-29T08:46:16;0.90;;;0.80;;
72493;SDS011;60520;49.182;-0.348;2023-05-29T08:48:46;0.93;;;0.80;;
72493;SDS011;60520;49.182;-0.348;2023-05-29T08:51:15;0.85;;;0.73;;
72493;SDS011;60520;49.182;-0.348;2023-05-29T08:53:42;1.42;;;0.82;;
72493;SDS011;60520;49.182;-0.348;2023-05-29T08:56:11;1.27;;;0.73;;
72493;SDS011;60520;49.182;-0.348;2023-05-29T08:58:38;1.67;;;0.88;;
72493;SDS011;60520;49.182;-0.348;2023-05-29T09:01:05;1.50;;;0.90;;
72493;SDS011;60520;49.182;-0.348;2023-05-29T09:03:33;2.33;;;0.93;;
72493;SDS011;60520;49.182;-0.348;2023-05-29T09:06:03;0.93;;;0.80;;
72493;SDS011;60520;49.182;-0.348;2023-05-29T09:08:32;1.65;;;0.73;;
72493;SDS011;60520;49.182;-0.348;2023-05-29T09:10:59;2.03;;;0.90;;
72493;SDS011;60520;49.182;-0.348;2023-05-29T09:13:28;1.10;;;0.90;;
72493;SDS011;60520;49.182;-0.348;2023-05-29T09:15:57;1.30;;;0.90;;
72493;SDS011;60520;49.182;-0.348;2023-05-29T09:18:28;1.20;;;0.73;;
72493;SDS011;60520;49.182;-0.348;2023-05-29T09:20:55;1.10;;;0.80;;
72493;SDS011;60520;49.182;-0.348;2023-05-29T09:23:23;1.35;;;0.80;;
72493;SDS011;60520;49.182;-0.348;2023-05-29T09:25:51;1.10;;;0.80;;
72493;SDS011;60520;49.182;-0.348;2023-05-29T09:28:18;0.85;;;0.70;;
72493;SDS011;60520;49.182;-0.348;2023-05-29T09:30:50;0.90;;;0.80;;
72493;SDS011;60520;49.182;-0.348;2023-05-29T09:33:17;0.88;;;0.80;;
72493;SDS011;60520;49.182;-0.348;2023-05-29T09:35:44;1.25;;;0.77;;
72493;SDS011;60520;49.182;-0.348;2023-05-29T09:38:12;1.27;;;0.80;;
72493;SDS011;60520;49.182;-0.348;2023-05-29T09:40:40;0.85;;;0.70;;
72493;SDS011;60520;49.182;-0.348;2023-05-29T09:43:11;1.05;;;0.90;;
72493;SDS011;60520;49.182;-0.348;2023-05-29T09:45:42;0.90;;;0.70;;
72493;SDS011;60520;49.182;-0.348;2023-05-29T09:48:13;1.30;;;0.82;;
72493;SDS011;60520;49.182;-0.348;2023-05-29T09:50:40;1.05;;;0.70;;
72493;SDS011;60520;49.182;-0.348;2023-05-29T09:53:15;1.17;;;0.70;;
72493;SDS011;60520;49.182;-0.348;2023-05-29T09:55:44;1.00;;;0.90;;
72493;SDS011;60520;49.182;-0.348;2023-05-29T09:58:11;0.80;;;0.60;;
72493;SDS011;60520;49.182;-0.348;2023-05-29T10:00:40;0.95;;;0.70;;
72493;SDS011;60520;49.182;-0.348;2023-05-29T10:03:08;1.30;;;0.75;;
72493;SDS011;60520;49.182;-0.348;2023-05-29T10:05:38;1.30;;;0.88;;
72493;SDS011;60520;49.182;-0.348;2023-05-29T10:08:05;0.88;;;0.70;;
72493;SDS011;60520;49.182;-0.348;2023-05-29T10:10:34;1.30;;;0.90;;
72493;SDS011;60520;49.182;-0.348;2023-05-29T10:13:01;1.45;;;0.80;;
72493;SDS011;60520;49.182;-0.348;2023-05-29T10:15:30;1.00;;;0.70;;
72493;SDS011;60520;49.182;-0.348;2023-05-29T10:17:59;1.08;;;0.77;;
72493;SDS011;60520;49.182;-0.348;2023-05-29T10:20:28;1.02;;;0.77;;
72493;SDS011;60520;49.182;-0.348;2023-05-29T10:22:56;0.88;;;0.70;;
72493;SDS011;60520;49.182;-0.348;2023-05-29T10:25:26;1.42;;;0.70;;
72493;SDS011;60520;49.182;-0.348;2023-05-29T10:27:54;1.05;;;0.80;;
72493;SDS011;60520;49.182;-0.348;2023-05-29T10:30:24;0.98;;;0.73;;
72493;SDS011;60520;49.182;-0.348;2023-05-29T10:33:05;0.90;;;0.70;;
72493;SDS011;60520;49.182;-0.348;2023-05-29T10:35:37;1.73;;;0.90;;
72493;SDS011;60520;49.182;-0.348;2023-05-29T10:38:11;1.00;;;0.80;;
72493;SDS011;60520;49.182;-0.348;2023-05-29T10:40:39;1.38;;;0.80;;
72493;SDS011;60520;49.182;-0.348;2023-05-29T10:43:06;1.55;;;0.95;;
72493;SDS011;60520;49.182;-0.348;2023-05-29T10:45:48;1.20;;;0.90;;
72493;SDS011;60520;49.182;-0.348;2023-05-29T10:51:02;1.23;;;0.80;;
72493;SDS011;60520;49.182;-0.348;2023-05-29T10:53:33;1.40;;;0.80;;
72493;SDS011;60520;49.182;-0.348;2023-05-29T10:56:05;1.48;;;0.88;;
72493;SDS011;60520;49.182;-0.348;2023-05-29T10:58:36;0.98;;;0.70;;
72493;SDS011;60520;49.182;-0.348;2023-05-29T11:01:04;0.80;;;0.60;;
72493;SDS011;60520;49.182;-0.348;2023-05-29T11:03:31;1.20;;;0.75;;
72493;SDS011;60520;49.182;-0.348;2023-05-29T11:05:59;0.98;;;0.70;;
72493;SDS011;60520;49.182;-0.348;2023-05-29T11:08:33;1.25;;;0.80;;
72493;SDS011;60520;49.182;-0.348;2023-05-29T11:11:01;1.08;;;0.77;;
72493;SDS011;60520;49.182;-0.348;2023-05-29T11:13:32;0.70;;;0.57;;
72493;SDS011;60520;49.182;-0.348;2023-05-29T11:16:09;1.33;;;0.70;;
72493;SDS011;60520;49.182;-0.348;2023-05-29T11:18:43;1.33;;;0.85;;
72493;SDS011;60520;49.182;-0.348;2023-05-29T11:23:54;1.23;;;0.70;;
72493;SDS011;60520;49.182;-0.348;2023-05-29T11:26:22;1.25;;;0.70;;
72493;SDS011;60520;49.182;-0.348;2023-05-29T11:28:50;1.25;;;0.85;;
72493;SDS011;60520;49.182;-0.348;2023-05-29T11:31:17;1.23;;;0.80;;
72493;SDS011;60520;49.182;-0.348;2023-05-29T11:33:47;1.45;;;0.85;;
72493;SDS011;60520;49.182;-0.348;2023-05-29T11:36:16;1.33;;;0.85;;
72493;SDS011;60520;49.182;-0.348;2023-05-29T11:38:44;1.33;;;0.88;;
72493;SDS011;60520;49.182;-0.348;2023-05-29T11:41:12;1.08;;;0.70;;
72493;SDS011;60520;49.182;-0.348;2023-05-29T11:43:39;1.30;;;0.80;;
72493;SDS011;60520;49.182;-0.348;2023-05-29T11:46:16;0.93;;;0.65;;
72493;SDS011;60520;49.182;-0.348;2023-05-29T11:48:44;1.23;;;0.75;;
72493;SDS011;60520;49.182;-0.348;2023-05-29T11:51:12;1.63;;;0.90;;
72493;SDS011;60520;49.182;-0.348;2023-05-29T11:53:39;1.40;;;0.77;;
72493;SDS011;60520;49.182;-0.348;2023-05-29T11:56:08;0.57;;;0.57;;
72493;SDS011;60520;49.182;-0.348;2023-05-29T11:58:37;0.98;;;0.70;;
72493;SDS011;60520;49.182;-0.348;2023-05-29T12:01:04;2.42;;;0.80;;
72493;SDS011;60520;49.182;-0.348;2023-05-29T12:03:37;3.78;;;1.13;;
72493;SDS011;60520;49.182;-0.348;2023-05-29T12:06:05;6.47;;;1.85;;
72493;SDS011;60520;49.182;-0.348;2023-05-29T12:08:32;7.28;;;1.80;;
72493;SDS011;60520;49.182;-0.348;2023-05-29T12:10:59;7.15;;;1.90;;
72493;SDS011;60520;49.182;-0.348;2023-05-29T12:13:27;12.55;;;2.75;;
72493;SDS011;60520;49.182;-0.348;2023-05-29T12:15:56;10.43;;;2.70;;
72493;SDS011;60520;49.182;-0.348;2023-05-29T12:18:24;15.02;;;2.80;;
72493;SDS011;60520;49.182;-0.348;2023-05-29T12:20:56;12.70;;;2.60;;
72493;SDS011;60520;49.182;-0.348;2023-05-29T12:23:24;14.43;;;2.90;;
72493;SDS011;60520;49.182;-0.348;2023-05-29T12:25:51;14.48;;;2.70;;
72493;SDS011;60520;49.182;-0.348;2023-05-29T12:28:18;11.63;;;2.78;;
72493;SDS011;60520;49.182;-0.348;2023-05-29T12:30:47;11.77;;;3.15;;
72493;SDS011;60520;49.182;-0.348;2023-05-29T12:33:26;14.52;;;3.00;;
72493;SDS011;60520;49.182;-0.348;2023-05-29T12:35:54;17.15;;;2.80;;
72493;SDS011;60520;49.182;-0.348;2023-05-29T12:38:22;10.93;;;2.75;;
72493;SDS011;60520;49.182;-0.348;2023-05-29T12:40:52;12.88;;;2.85;;
72493;SDS011;60520;49.182;-0.348;2023-05-29T12:43:19;20.60;;;3.10;;
72493;SDS011;60520;49.182;-0.348;2023-05-29T12:45:47;16.92;;;3.30;;
72493;SDS011;60520;49.182;-0.348;2023-05-29T12:48:25;12.20;;;2.60;;
72493;SDS011;60520;49.182;-0.348;2023-05-29T12:50:54;12.10;;;2.63;;
72493;SDS011;60520;49.182;-0.348;2023-05-29T12:53:22;14.73;;;2.80;;
72493;SDS011;60520;49.182;-0.348;2023-05-29T12:55:56;14.35;;;2.95;;
72493;SDS011;60520;49.182;-0.348;2023-05-29T12:58:23;14.27;;;3.25;;
72493;SDS011;60520;49.182;-0.348;2023-05-29T13:00:52;12.00;;;2.65;;
72493;SDS011;60520;49.182;-0.348;2023-05-29T13:03:21;13.20;;;2.80;;
72493;SDS011;60520;49.182;-0.348;2023-05-29T13:05:49;13.18;;;2.85;;
72493;SDS011;60520;49.182;-0.348;2023-05-29T13:08:18;13.13;;;2.65;;
72493;SDS011;60520;49.182;-0.348;2023-05-29T13:10:46;12.13;;;3.03;;
72493;SDS011;60520;49.182;-0.348;2023-05-29T13:13:13;12.32;;;2.92;;
72493;SDS011;60520;49.182;-0.348;2023-05-29T13:15:40;9.57;;;2.50;;
72493;SDS011;60520;49.182;-0.348;2023-05-29T13:18:07;14.32;;;2.92;;
72493;SDS011;60520;49.182;-0.348;2023-05-29T13:20:34;13.93;;;3.10;;
72493;SDS011;60520;49.182;-0.348;2023-05-29T13:23:01;19.05;;;3.22;;
72493;SDS011;60520;49.182;-0.348;2023-05-29T13:25:30;14.43;;;3.05;;
72493;SDS011;60520;49.182;-0.348;2023-05-29T13:27:57;12.80;;;3.10;;
72493;SDS011;60520;49.182;-0.348;2023-05-29T13:30:24;15.23;;;2.78;;
72493;SDS011;60520;49.182;-0.348;2023-05-29T13:32:52;12.15;;;3.08;;
72493;SDS011;60520;49.182;-0.348;2023-05-29T13:35:19;18.42;;;3.13;;
72493;SDS011;60520;49.182;-0.348;2023-05-29T13:37:46;14.45;;;3.08;;
72493;SDS011;60520;49.182;-0.348;2023-05-29T13:40:14;10.68;;;2.55;;
72493;SDS011;60520;49.182;-0.348;2023-05-29T13:42:42;13.75;;;3.30;;
72493;SDS011;60520;49.182;-0.348;2023-05-29T13:45:09;12.30;;;2.75;;
72493;SDS011;60520;49.182;-0.348;2023-05-29T13:47:37;16.30;;;3.22;;
72493;SDS011;60520;49.182;-0.348;2023-05-29T13:50:05;10.50;;;3.05;;
72493;SDS011;60520;49.182;-0.348;2023-05-29T13:52:33;16.83;;;2.92;;
72493;SDS011;60520;49.182;-0.348;2023-05-29T13:55:00;15.93;;;2.85;;
72493;SDS011;60520;49.182;-0.348;2023-05-29T13:57:31;12.25;;;2.75;;
72493;SDS011;60520;49.182;-0.348;2023-05-29T13:59:59;14.90;;;2.70;;
72493;SDS011;60520;49.182;-0.348;2023-05-29T14:02:27;14.45;;;2.67;;
72493;SDS011;60520;49.182;-0.348;2023-05-29T14:04:54;14.95;;;2.65;;
72493;SDS011;60520;49.182;-0.348;2023-05-29T14:07:21;13.95;;;3.17;;
72493;SDS011;60520;49.182;-0.348;2023-05-29T14:09:49;9.70;;;2.60;;
72493;SDS011;60520;49.182;-0.348;2023-05-29T14:12:16;11.93;;;2.63;;
72493;SDS011;60520;49.182;-0.348;2023-05-29T14:14:43;14.60;;;2.95;;
72493;SDS011;60520;49.182;-0.348;2023-05-29T14:17:13;8.77;;;2.47;;
72493;SDS011;60520;49.182;-0.348;2023-05-29T14:19:40;12.00;;;3.15;;
72493;SDS011;60520;49.182;-0.348;2023-05-29T14:22:10;12.90;;;2.60;;
72493;SDS011;60520;49.182;-0.348;2023-05-29T14:24:37;14.95;;;2.70;;
72493;SDS011;60520;49.182;-0.348;2023-05-29T14:27:05;13.07;;;3.10;;
72493;SDS011;60520;49.182;-0.348;2023-05-29T14:29:32;13.68;;;2.70;;
72493;SDS011;60520;49.182;-0.348;2023-05-29T14:31:59;12.00;;;2.83;;
72493;SDS011;60520;49.182;-0.348;2023-05-29T14:34:27;11.77;;;2.70;;
72493;SDS011;60520;49.182;-0.348;2023-05-29T14:36:55;16.27;;;3.35;;
72493;SDS011;60520;49.182;-0.348;2023-05-29T14:39:22;11.73;;;2.83;;
72493;SDS011;60520;49.182;-0.348;2023-05-29T14:41:49;9.77;;;2.88;;
72493;SDS011;60520;49.182;-0.348;2023-05-29T14:44:16;11.40;;;3.10;;